Union City, Missouri
Current Conditions -  °F | °C
As of 12:52 PM on Thursday 30 Oct 2014 (Local Time) from KSGF Reporting Station
Few Clouds Few Clouds  
Wind Chill: 60°   Ceiling: Unl
Heat Index: 60°   Visibility: 10mi
Dew Point: 47°   Wind: 15mph
Humidity: 62%   Direction: 180°S
Pressure: 30.02"   Gusts: 21mph
Location:  37.0483°N, 93.5506°W
Report Text: KSGF 301752Z 18013G18KT 10SM FEW100 16/08 A3002 RMK AO2 SLP164 60006 T01560083 10156 20067 58024
Loading
Personal Weather Stations






























Interactive Weather Map
Tropical Storm Tracking
New forecast layout! Learn more

10-Day Weather Forecast

Advertisements
Track Severe Weather on mobile